sensor_id;sensor_type;location;lat;lon;timestamp;temperature;humidity
12060;DHT22;6091;51.432;6.880;2023-05-07T00:02:26;25.60;36.70
12060;DHT22;6091;51.432;6.880;2023-05-07T00:04:53;25.60;36.70
12060;DHT22;6091;51.432;6.880;2023-05-07T00:07:21;25.60;37.20
12060;DHT22;6091;51.432;6.880;2023-05-07T00:09:49;25.60;36.70
12060;DHT22;6091;51.432;6.880;2023-05-07T00:12:17;25.60;36.70
12060;DHT22;6091;51.432;6.880;2023-05-07T00:14:44;25.60;36.70
12060;DHT22;6091;51.432;6.880;2023-05-07T00:17:13;25.60;36.80
12060;DHT22;6091;51.432;6.880;2023-05-07T00:19:41;25.60;36.80
12060;DHT22;6091;51.432;6.880;2023-05-07T00:22:08;25.60;36.70
12060;DHT22;6091;51.432;6.880;2023-05-07T00:24:36;25.60;37.30
12060;DHT22;6091;51.432;6.880;2023-05-07T00:27:06;25.70;36.80
12060;DHT22;6091;51.432;6.880;2023-05-07T00:29:33;25.50;36.70
12060;DHT22;6091;51.432;6.880;2023-05-07T00:32:00;25.60;36.80
12060;DHT22;6091;51.432;6.880;2023-05-07T00:34:32;25.60;37.30
12060;DHT22;6091;51.432;6.880;2023-05-07T00:37:02;25.60;36.80
12060;DHT22;6091;51.432;6.880;2023-05-07T00:39:36;25.60;36.80
12060;DHT22;6091;51.432;6.880;2023-05-07T00:42:04;25.60;36.70
12060;DHT22;6091;51.432;6.880;2023-05-07T00:44:35;25.60;36.90
12060;DHT22;6091;51.432;6.880;2023-05-07T00:47:03;25.60;36.80
12060;DHT22;6091;51.432;6.880;2023-05-07T00:49:38;25.60;37.30
12060;DHT22;6091;51.432;6.880;2023-05-07T00:52:11;25.60;36.80
12060;DHT22;6091;51.432;6.880;2023-05-07T00:54:41;25.60;37.40
12060;DHT22;6091;51.432;6.880;2023-05-07T00:57:10;25.60;36.80
12060;DHT22;6091;51.432;6.880;2023-05-07T00:59:44;25.50;36.80
12060;DHT22;6091;51.432;6.880;2023-05-07T01:02:11;25.60;37.40
12060;DHT22;6091;51.432;6.880;2023-05-07T01:04:39;25.50;36.80
12060;DHT22;6091;51.432;6.880;2023-05-07T01:07:10;25.60;37.40
12060;DHT22;6091;51.432;6.880;2023-05-07T01:12:07;25.60;36.80
12060;DHT22;6091;51.432;6.880;2023-05-07T01:14:35;25.50;37.40
12060;DHT22;6091;51.432;6.880;2023-05-07T01:17:03;25.60;37.40
12060;DHT22;6091;51.432;6.880;2023-05-07T01:19:30;25.40;36.80
12060;DHT22;6091;51.432;6.880;2023-05-07T01:22:03;25.40;36.80
12060;DHT22;6091;51.432;6.880;2023-05-07T01:24:38;25.50;37.00
12060;DHT22;6091;51.432;6.880;2023-05-07T01:27:05;25.60;36.90
12060;DHT22;6091;51.432;6.880;2023-05-07T01:29:32;25.50;36.80
12060;DHT22;6091;51.432;6.880;2023-05-07T01:32:00;25.40;36.90
12060;DHT22;6091;51.432;6.880;2023-05-07T01:34:31;25.50;37.50
12060;DHT22;6091;51.432;6.880;2023-05-07T01:37:01;25.40;36.90
12060;DHT22;6091;51.432;6.880;2023-05-07T01:39:30;25.40;36.90
12060;DHT22;6091;51.432;6.880;2023-05-07T01:41:59;25.50;37.00
12060;DHT22;6091;51.432;6.880;2023-05-07T01:44:27;25.40;37.40
12060;DHT22;6091;51.432;6.880;2023-05-07T01:46:57;25.40;36.90
12060;DHT22;6091;51.432;6.880;2023-05-07T01:49:31;25.40;36.90
12060;DHT22;6091;51.432;6.880;2023-05-07T01:51:58;25.50;37.00
12060;DHT22;6091;51.432;6.880;2023-05-07T01:54:29;25.40;37.00
12060;DHT22;6091;51.432;6.880;2023-05-07T01:56:57;25.40;37.00
12060;DHT22;6091;51.432;6.880;2023-05-07T01:59:24;25.40;37.00
12060;DHT22;6091;51.432;6.880;2023-05-07T02:01:52;25.50;37.10
12060;DHT22;6091;51.432;6.880;2023-05-07T02:04:23;25.50;37.60
12060;DHT22;6091;51.432;6.880;2023-05-07T02:06:55;25.50;37.00
12060;DHT22;6091;51.432;6.880;2023-05-07T02:11:59;25.40;37.00
12060;DHT22;6091;51.432;6.880;2023-05-07T02:14:26;25.40;37.00
12060;DHT22;6091;51.432;6.880;2023-05-07T02:16:56;25.40;37.00
12060;DHT22;6091;51.432;6.880;2023-05-07T02:19:23;25.40;37.10
12060;DHT22;6091;51.432;6.880;2023-05-07T02:21:51;25.30;37.00
12060;DHT22;6091;51.432;6.880;2023-05-07T02:24:18;25.40;37.60
12060;DHT22;6091;51.432;6.880;2023-05-07T02:26:45;25.40;37.10
12060;DHT22;6091;51.432;6.880;2023-05-07T02:29:12;25.40;37.10
12060;DHT22;6091;51.432;6.880;2023-05-07T02:31:39;25.40;37.60
12060;DHT22;6091;51.432;6.880;2023-05-07T02:34:07;25.30;37.10
12060;DHT22;6091;51.432;6.880;2023-05-07T02:36:37;25.50;37.10
12060;DHT22;6091;51.432;6.880;2023-05-07T02:39:04;25.40;37.10
12060;DHT22;6091;51.432;6.880;2023-05-07T02:41:32;25.30;37.10
12060;DHT22;6091;51.432;6.880;2023-05-07T02:44:00;25.40;37.10
12060;DHT22;6091;51.432;6.880;2023-05-07T02:46:27;25.40;37.10
12060;DHT22;6091;51.432;6.880;2023-05-07T02:48:58;25.40;37.10
12060;DHT22;6091;51.432;6.880;2023-05-07T02:51:25;25.30;37.10
12060;DHT22;6091;51.432;6.880;2023-05-07T02:53:58;25.40;37.20
12060;DHT22;6091;51.432;6.880;2023-05-07T02:56:27;25.30;37.10
12060;DHT22;6091;51.432;6.880;2023-05-07T03:01:24;25.40;37.10
12060;DHT22;6091;51.432;6.880;2023-05-07T03:03:53;25.40;37.20
12060;DHT22;6091;51.432;6.880;2023-05-07T03:06:20;25.40;37.20
12060;DHT22;6091;51.432;6.880;2023-05-07T03:11:16;25.30;37.20
12060;DHT22;6091;51.432;6.880;2023-05-07T03:13:44;25.30;37.30
12060;DHT22;6091;51.432;6.880;2023-05-07T03:16:12;25.40;37.30
12060;DHT22;6091;51.432;6.880;2023-05-07T03:18:39;25.30;37.30
12060;DHT22;6091;51.432;6.880;2023-05-07T03:21:07;25.30;37.30
12060;DHT22;6091;51.432;6.880;2023-05-07T03:23:34;25.30;37.30
12060;DHT22;6091;51.432;6.880;2023-05-07T03:26:01;25.20;37.20
12060;DHT22;6091;51.432;6.880;2023-05-07T03:28:30;25.40;37.30
12060;DHT22;6091;51.432;6.880;2023-05-07T03:30:57;25.20;37.20
12060;DHT22;6091;51.432;6.880;2023-05-07T03:33:27;25.20;37.30
12060;DHT22;6091;51.432;6.880;2023-05-07T03:35:55;25.30;37.30
12060;DHT22;6091;51.432;6.880;2023-05-07T03:38:23;25.20;37.30
12060;DHT22;6091;51.432;6.880;2023-05-07T03:40:50;25.30;37.80
12060;DHT22;6091;51.432;6.880;2023-05-07T03:43:17;25.30;37.80
12060;DHT22;6091;51.432;6.880;2023-05-07T03:45:47;25.30;37.30
12060;DHT22;6091;51.432;6.880;2023-05-07T03:48:15;25.20;37.30
12060;DHT22;6091;51.432;6.880;2023-05-07T03:50:42;25.20;37.30
12060;DHT22;6091;51.432;6.880;2023-05-07T03:53:10;25.20;37.30
12060;DHT22;6091;51.432;6.880;2023-05-07T03:55:37;25.20;37.30
12060;DHT22;6091;51.432;6.880;2023-05-07T03:58:11;25.20;37.30
12060;DHT22;6091;51.432;6.880;2023-05-07T04:00:38;25.00;37.20
12060;DHT22;6091;51.432;6.880;2023-05-07T04:03:08;25.20;37.30
12060;DHT22;6091;51.432;6.880;2023-05-07T04:05:35;25.20;37.30
12060;DHT22;6091;51.432;6.880;2023-05-07T04:08:03;25.20;37.30
12060;DHT22;6091;51.432;6.880;2023-05-07T04:10:31;25.20;37.40
12060;DHT22;6091;51.432;6.880;2023-05-07T04:12:58;25.20;37.30
12060;DHT22;6091;51.432;6.880;2023-05-07T04:15:25;25.30;37.40
12060;DHT22;6091;51.432;6.880;2023-05-07T04:17:53;25.20;37.40
12060;DHT22;6091;51.432;6.880;2023-05-07T04:20:20;25.30;38.00
12060;DHT22;6091;51.432;6.880;2023-05-07T04:22:50;25.20;37.40
12060;DHT22;6091;51.432;6.880;2023-05-07T04:25:18;25.20;37.40
12060;DHT22;6091;51.432;6.880;2023-05-07T04:27:46;25.20;37.40
12060;DHT22;6091;51.432;6.880;2023-05-07T04:30:13;25.20;37.40
12060;DHT22;6091;51.432;6.880;2023-05-07T04:32:41;25.20;37.40
12060;DHT22;6091;51.432;6.880;2023-05-07T04:35:08;25.20;37.40
12060;DHT22;6091;51.432;6.880;2023-05-07T04:37:36;25.20;37.50
12060;DHT22;6091;51.432;6.880;2023-05-07T04:40:04;25.20;37.40
12060;DHT22;6091;51.432;6.880;2023-05-07T04:45:00;25.20;37.50
12060;DHT22;6091;51.432;6.880;2023-05-07T04:47:28;25.30;37.50
12060;DHT22;6091;51.432;6.880;2023-05-07T04:49:58;25.20;37.50
12060;DHT22;6091;51.432;6.880;2023-05-07T04:52:25;25.30;37.50
12060;DHT22;6091;51.432;6.880;2023-05-07T04:54:53;25.30;37.50
12060;DHT22;6091;51.432;6.880;2023-05-07T04:57:20;25.20;37.40
12060;DHT22;6091;51.432;6.880;2023-05-07T05:02:15;25.20;37.50
12060;DHT22;6091;51.432;6.880;2023-05-07T05:04:46;25.20;37.50
12060;DHT22;6091;51.432;6.880;2023-05-07T05:07:14;25.20;38.00
12060;DHT22;6091;51.432;6.880;2023-05-07T05:09:41;25.20;37.50
12060;DHT22;6091;51.432;6.880;2023-05-07T05:12:08;25.20;37.50
12060;DHT22;6091;51.432;6.880;2023-05-07T05:14:39;25.20;37.50
12060;DHT22;6091;51.432;6.880;2023-05-07T05:17:06;24.90;37.30
12060;DHT22;6091;51.432;6.880;2023-05-07T05:19:34;25.30;37.50
12060;DHT22;6091;51.432;6.880;2023-05-07T05:22:01;25.20;37.50
12060;DHT22;6091;51.432;6.880;2023-05-07T05:24:31;25.30;38.10
12060;DHT22;6091;51.432;6.880;2023-05-07T05:26:58;25.30;37.50
12060;DHT22;6091;51.432;6.880;2023-05-07T05:29:31;25.30;37.50
12060;DHT22;6091;51.432;6.880;2023-05-07T05:31:59;25.20;37.50
12060;DHT22;6091;51.432;6.880;2023-05-07T05:34:28;25.20;37.50
12060;DHT22;6091;51.432;6.880;2023-05-07T05:39:23;25.20;37.50
12060;DHT22;6091;51.432;6.880;2023-05-07T05:41:50;25.50;37.70
12060;DHT22;6091;51.432;6.880;2023-05-07T05:44:18;25.20;37.50
12060;DHT22;6091;51.432;6.880;2023-05-07T05:46:45;25.20;37.50
12060;DHT22;6091;51.432;6.880;2023-05-07T05:49:12;25.20;37.50
12060;DHT22;6091;51.432;6.880;2023-05-07T05:51:41;25.60;37.80
12060;DHT22;6091;51.432;6.880;2023-05-07T05:54:08;25.20;37.50
12060;DHT22;6091;51.432;6.880;2023-05-07T05:59:06;25.40;37.60
12060;DHT22;6091;51.432;6.880;2023-05-07T06:01:33;25.40;37.60
12060;DHT22;6091;51.432;6.880;2023-05-07T06:04:00;25.30;37.60
12060;DHT22;6091;51.432;6.880;2023-05-07T06:06:28;25.40;37.60
12060;DHT22;6091;51.432;6.880;2023-05-07T06:08:57;25.30;37.60
12060;DHT22;6091;51.432;6.880;2023-05-07T06:11:24;25.40;37.60
12060;DHT22;6091;51.432;6.880;2023-05-07T06:13:54;25.40;37.60
12060;DHT22;6091;51.432;6.880;2023-05-07T06:16:22;25.30;37.60
12060;DHT22;6091;51.432;6.880;2023-05-07T06:18:49;27.80;39.10
12060;DHT22;6091;51.432;6.880;2023-05-07T06:21:16;25.40;38.10
12060;DHT22;6091;51.432;6.880;2023-05-07T06:23:44;25.50;37.60
12060;DHT22;6091;51.432;6.880;2023-05-07T06:26:12;25.50;37.60
12060;DHT22;6091;51.432;6.880;2023-05-07T06:28:39;25.40;37.60
12060;DHT22;6091;51.432;6.880;2023-05-07T06:31:17;25.40;37.60
12060;DHT22;6091;51.432;6.880;2023-05-07T06:33:49;25.50;38.20
12060;DHT22;6091;51.432;6.880;2023-05-07T06:36:18;25.40;37.50
12060;DHT22;6091;51.432;6.880;2023-05-07T06:38:45;25.50;38.10
12060;DHT22;6091;51.432;6.880;2023-05-07T06:41:13;25.30;37.50
12060;DHT22;6091;51.432;6.880;2023-05-07T06:43:40;25.50;37.50
12060;DHT22;6091;51.432;6.880;2023-05-07T06:46:10;25.50;37.50
12060;DHT22;6091;51.432;6.880;2023-05-07T06:48:38;25.40;37.50
12060;DHT22;6091;51.432;6.880;2023-05-07T06:51:06;25.60;37.50
12060;DHT22;6091;51.432;6.880;2023-05-07T06:53:34;25.50;37.50
12060;DHT22;6091;51.432;6.880;2023-05-07T06:56:02;25.50;37.50
12060;DHT22;6091;51.432;6.880;2023-05-07T06:58:30;25.60;37.50
12060;DHT22;6091;51.432;6.880;2023-05-07T07:00:57;25.50;37.50
12060;DHT22;6091;51.432;6.880;2023-05-07T07:03:27;25.50;37.50
12060;DHT22;6091;51.432;6.880;2023-05-07T07:05:54;25.50;37.50
12060;DHT22;6091;51.432;6.880;2023-05-07T07:08:22;25.70;37.60
12060;DHT22;6091;51.432;6.880;2023-05-07T07:10:49;25.50;37.50
12060;DHT22;6091;51.432;6.880;2023-05-07T07:13:17;25.70;37.60
12060;DHT22;6091;51.432;6.880;2023-05-07T07:15:47;25.60;38.00
12060;DHT22;6091;51.432;6.880;2023-05-07T07:18:15;25.50;37.40
12060;DHT22;6091;51.432;6.880;2023-05-07T07:20:43;25.50;37.40
12060;DHT22;6091;51.432;6.880;2023-05-07T07:23:11;25.70;37.50
12060;DHT22;6091;51.432;6.880;2023-05-07T07:25:39;25.60;37.40
12060;DHT22;6091;51.432;6.880;2023-05-07T07:28:06;25.70;37.50
12060;DHT22;6091;51.432;6.880;2023-05-07T07:30:34;25.60;37.40
12060;DHT22;6091;51.432;6.880;2023-05-07T07:33:03;25.70;37.50
12060;DHT22;6091;51.432;6.880;2023-05-07T07:35:32;25.80;37.50
12060;DHT22;6091;51.432;6.880;2023-05-07T07:38:03;25.70;37.40
12060;DHT22;6091;51.432;6.880;2023-05-07T07:40:31;25.80;37.50
12060;DHT22;6091;51.432;6.880;2023-05-07T07:45:28;25.70;37.30
12060;DHT22;6091;51.432;6.880;2023-05-07T07:47:55;25.70;37.30
12060;DHT22;6091;51.432;6.880;2023-05-07T07:50:23;25.80;37.90
12060;DHT22;6091;51.432;6.880;2023-05-07T07:53:09;25.80;37.40
12060;DHT22;6091;51.432;6.880;2023-05-07T07:55:40;25.80;37.90
12060;DHT22;6091;51.432;6.880;2023-05-07T07:58:11;25.90;37.40
12060;DHT22;6091;51.432;6.880;2023-05-07T08:00:38;25.90;37.40
12060;DHT22;6091;51.432;6.880;2023-05-07T08:03:08;25.90;37.40
12060;DHT22;6091;51.432;6.880;2023-05-07T08:05:37;25.90;37.40
12060;DHT22;6091;51.432;6.880;2023-05-07T08:08:05;26.00;37.40
12060;DHT22;6091;51.432;6.880;2023-05-07T08:10:33;25.90;37.40
12060;DHT22;6091;51.432;6.880;2023-05-07T08:13:01;25.90;37.40
12060;DHT22;6091;51.432;6.880;2023-05-07T08:15:31;26.00;38.00
12060;DHT22;6091;51.432;6.880;2023-05-07T08:17:59;26.10;37.40
12060;DHT22;6091;51.432;6.880;2023-05-07T08:20:28;26.00;37.40
12060;DHT22;6091;51.432;6.880;2023-05-07T08:22:56;26.10;37.40
12060;DHT22;6091;51.432;6.880;2023-05-07T08:27:51;26.00;37.30
12060;DHT22;6091;51.432;6.880;2023-05-07T08:30:21;26.10;37.30
12060;DHT22;6091;51.432;6.880;2023-05-07T08:32:48;26.10;37.30
12060;DHT22;6091;51.432;6.880;2023-05-07T08:35:16;26.20;37.30
12060;DHT22;6091;51.432;6.880;2023-05-07T08:37:43;26.20;37.30
12060;DHT22;6091;51.432;6.880;2023-05-07T08:40:11;26.30;37.30
12060;DHT22;6091;51.432;6.880;2023-05-07T08:42:41;26.20;37.70
12060;DHT22;6091;51.432;6.880;2023-05-07T08:45:10;26.30;37.20
12060;DHT22;6091;51.432;6.880;2023-05-07T08:47:44;26.20;37.10
12060;DHT22;6091;51.432;6.880;2023-05-07T08:50:18;26.30;37.20
12060;DHT22;6091;51.432;6.880;2023-05-07T08:52:47;26.30;37.10
12060;DHT22;6091;51.432;6.880;2023-05-07T08:57:44;26.40;37.10
12060;DHT22;6091;51.432;6.880;2023-05-07T09:00:12;26.40;37.20
12060;DHT22;6091;51.432;6.880;2023-05-07T09:02:39;26.50;37.20
12060;DHT22;6091;51.432;6.880;2023-05-07T09:05:07;26.40;37.10
12060;DHT22;6091;51.432;6.880;2023-05-07T09:07:35;26.30;37.00
12060;DHT22;6091;51.432;6.880;2023-05-07T09:10:04;26.40;37.60
12060;DHT22;6091;51.432;6.880;2023-05-07T09:12:32;26.50;37.10
12060;DHT22;6091;51.432;6.880;2023-05-07T09:15:01;26.40;37.10
12060;DHT22;6091;51.432;6.880;2023-05-07T09:20:06;26.50;37.10
12060;DHT22;6091;51.432;6.880;2023-05-07T09:22:37;26.60;37.20
12060;DHT22;6091;51.432;6.880;2023-05-07T09:25:08;26.50;37.10
12060;DHT22;6091;51.432;6.880;2023-05-07T09:27:38;26.40;37.00
12060;DHT22;6091;51.432;6.880;2023-05-07T09:30:06;26.60;37.30
12060;DHT22;6091;51.432;6.880;2023-05-07T09:32:37;26.50;37.30
12060;DHT22;6091;51.432;6.880;2023-05-07T09:35:06;26.50;37.30
12060;DHT22;6091;51.432;6.880;2023-05-07T09:37:41;26.50;37.30
12060;DHT22;6091;51.432;6.880;2023-05-07T09:40:29;26.60;37.40
12060;DHT22;6091;51.432;6.880;2023-05-07T09:43:12;26.70;37.50
12060;DHT22;6091;51.432;6.880;2023-05-07T09:45:41;26.70;38.10
12060;DHT22;6091;51.432;6.880;2023-05-07T09:48:10;26.70;37.50
12060;DHT22;6091;51.432;6.880;2023-05-07T09:50:49;26.70;37.50
12060;DHT22;6091;51.432;6.880;2023-05-07T09:53:21;26.80;38.00
12060;DHT22;6091;51.432;6.880;2023-05-07T09:55:51;26.90;37.50
12060;DHT22;6091;51.432;6.880;2023-05-07T09:58:21;26.90;37.50
12060;DHT22;6091;51.432;6.880;2023-05-07T10:00:54;26.90;37.40
12060;DHT22;6091;51.432;6.880;2023-05-07T10:03:24;26.90;37.40
12060;DHT22;6091;51.432;6.880;2023-05-07T10:05:56;26.90;37.30
12060;DHT22;6091;51.432;6.880;2023-05-07T10:08:26;26.90;37.80
12060;DHT22;6091;51.432;6.880;2023-05-07T10:10:53;26.90;37.20
12060;DHT22;6091;51.432;6.880;2023-05-07T10:13:21;27.00;37.30
12060;DHT22;6091;51.432;6.880;2023-05-07T10:15:49;27.00;37.80
12060;DHT22;6091;51.432;6.880;2023-05-07T10:18:18;26.80;37.00
12060;DHT22;6091;51.432;6.880;2023-05-07T10:20:51;27.10;37.20
12060;DHT22;6091;51.432;6.880;2023-05-07T10:23:23;27.10;37.10
12060;DHT22;6091;51.432;6.880;2023-05-07T10:25:52;27.20;37.10
12060;DHT22;6091;51.432;6.880;2023-05-07T10:28:27;27.20;37.10
12060;DHT22;6091;51.432;6.880;2023-05-07T10:31:07;27.20;37.60
12060;DHT22;6091;51.432;6.880;2023-05-07T10:33:58;27.30;37.00
12060;DHT22;6091;51.432;6.880;2023-05-07T10:36:29;27.30;36.90
12060;DHT22;6091;51.432;6.880;2023-05-07T10:38:59;27.30;36.80
12060;DHT22;6091;51.432;6.880;2023-05-07T10:41:26;27.30;36.90
12060;DHT22;6091;51.432;6.880;2023-05-07T10:43:53;27.30;36.80
12060;DHT22;6091;51.432;6.880;2023-05-07T10:46:24;27.30;36.80
12060;DHT22;6091;51.432;6.880;2023-05-07T10:51:35;27.30;36.70
12060;DHT22;6091;51.432;6.880;2023-05-07T10:56:41;27.30;36.60
12060;DHT22;6091;51.432;6.880;2023-05-07T10:59:31;27.30;36.80
12060;DHT22;6091;51.432;6.880;2023-05-07T11:02:03;27.40;36.90
12060;DHT22;6091;51.432;6.880;2023-05-07T11:10:01;27.40;36.80
12060;DHT22;6091;51.432;6.880;2023-05-07T11:15:06;27.50;36.50
12060;DHT22;6091;51.432;6.880;2023-05-07T11:17:53;27.60;37.20
12060;DHT22;6091;51.432;6.880;2023-05-07T11:20:45;27.60;36.60
12060;DHT22;6091;51.432;6.880;2023-05-07T11:26:09;27.70;37.00
12060;DHT22;6091;51.432;6.880;2023-05-07T11:28:43;27.70;37.00
12060;DHT22;6091;51.432;6.880;2023-05-07T11:31:11;27.70;36.40
12060;DHT22;6091;51.432;6.880;2023-05-07T11:33:38;27.70;36.40
12060;DHT22;6091;51.432;6.880;2023-05-07T11:36:08;27.70;36.40
12060;DHT22;6091;51.432;6.880;2023-05-07T11:38:37;27.80;36.90
12060;DHT22;6091;51.432;6.880;2023-05-07T11:41:05;27.70;36.30
12060;DHT22;6091;51.432;6.880;2023-05-07T11:43:34;27.70;36.20
12060;DHT22;6091;51.432;6.880;2023-05-07T11:46:10;27.80;36.20
12060;DHT22;6091;51.432;6.880;2023-05-07T11:48:39;27.80;36.10
12060;DHT22;6091;51.432;6.880;2023-05-07T11:51:07;27.80;36.10
12060;DHT22;6091;51.432;6.880;2023-05-07T11:53:42;27.80;36.10
12060;DHT22;6091;51.432;6.880;2023-05-07T11:56:15;27.80;36.10
12060;DHT22;6091;51.432;6.880;2023-05-07T11:58:46;27.80;36.60
12060;DHT22;6091;51.432;6.880;2023-05-07T12:01:14;27.80;36.10
12060;DHT22;6091;51.432;6.880;2023-05-07T12:03:44;27.70;35.90
12060;DHT22;6091;51.432;6.880;2023-05-07T12:06:15;27.70;35.90
12060;DHT22;6091;51.432;6.880;2023-05-07T12:08:45;27.70;36.00
12060;DHT22;6091;51.432;6.880;2023-05-07T12:11:16;27.80;36.00
12060;DHT22;6091;51.432;6.880;2023-05-07T12:13:50;27.70;36.00
12060;DHT22;6091;51.432;6.880;2023-05-07T12:16:19;27.60;35.90
12060;DHT22;6091;51.432;6.880;2023-05-07T12:18:50;27.60;35.90
12060;DHT22;6091;51.432;6.880;2023-05-07T12:21:19;27.50;35.80
12060;DHT22;6091;51.432;6.880;2023-05-07T12:23:47;27.50;35.80
12060;DHT22;6091;51.432;6.880;2023-05-07T12:26:19;27.60;35.90
12060;DHT22;6091;51.432;6.880;2023-05-07T12:28:47;27.50;35.90
12060;DHT22;6091;51.432;6.880;2023-05-07T12:31:15;27.40;35.80
12060;DHT22;6091;51.432;6.880;2023-05-07T12:36:13;27.40;35.90
12060;DHT22;6091;51.432;6.880;2023-05-07T12:38:40;27.30;36.40
12060;DHT22;6091;51.432;6.880;2023-05-07T12:41:10;27.30;35.90
12060;DHT22;6091;51.432;6.880;2023-05-07T12:43:39;27.30;35.90
12060;DHT22;6091;51.432;6.880;2023-05-07T12:46:10;27.20;35.80
12060;DHT22;6091;51.432;6.880;2023-05-07T12:48:38;27.20;35.90
12060;DHT22;6091;51.432;6.880;2023-05-07T12:51:10;27.20;35.90
12060;DHT22;6091;51.432;6.880;2023-05-07T12:53:41;27.20;35.90
12060;DHT22;6091;51.432;6.880;2023-05-07T12:56:11;27.10;35.90
12060;DHT22;6091;51.432;6.880;2023-05-07T13:01:08;27.10;35.90
12060;DHT22;6091;51.432;6.880;2023-05-07T13:03:40;27.10;35.90
12060;DHT22;6091;51.432;6.880;2023-05-07T13:06:12;27.00;35.90
12060;DHT22;6091;51.432;6.880;2023-05-07T13:08:41;27.00;35.90
12060;DHT22;6091;51.432;6.880;2023-05-07T13:11:12;27.10;36.00
12060;DHT22;6091;51.432;6.880;2023-05-07T13:13:41;27.10;36.00
12060;DHT22;6091;51.432;6.880;2023-05-07T13:16:10;27.00;35.90
12060;DHT22;6091;51.432;6.880;2023-05-07T13:18:40;29.80;37.70
12060;DHT22;6091;51.432;6.880;2023-05-07T13:23:40;26.80;35.90
12060;DHT22;6091;51.432;6.880;2023-05-07T13:26:09;27.00;36.00
12060;DHT22;6091;51.432;6.880;2023-05-07T13:28:55;26.90;36.00
12060;DHT22;6091;51.432;6.880;2023-05-07T13:31:25;26.90;36.00
12060;DHT22;6091;51.432;6.880;2023-05-07T13:33:54;26.80;36.00
12060;DHT22;6091;51.432;6.880;2023-05-07T13:36:25;26.80;36.00
12060;DHT22;6091;51.432;6.880;2023-05-07T13:38:53;26.80;36.00
12060;DHT22;6091;51.432;6.880;2023-05-07T13:41:21;26.80;36.10
12060;DHT22;6091;51.432;6.880;2023-05-07T13:43:48;26.80;36.10
12060;DHT22;6091;51.432;6.880;2023-05-07T13:46:17;26.70;36.10
12060;DHT22;6091;51.432;6.880;2023-05-07T13:48:46;26.80;36.20
12060;DHT22;6091;51.432;6.880;2023-05-07T13:53:41;26.70;36.20
12060;DHT22;6091;51.432;6.880;2023-05-07T13:56:09;26.70;36.30
12060;DHT22;6091;51.432;6.880;2023-05-07T13:58:36;26.80;36.20
12060;DHT22;6091;51.432;6.880;2023-05-07T14:03:41;26.70;36.30
12060;DHT22;6091;51.432;6.880;2023-05-07T14:08:40;26.80;36.30
12060;DHT22;6091;51.432;6.880;2023-05-07T14:11:07;26.70;36.90
12060;DHT22;6091;51.432;6.880;2023-05-07T14:13:35;26.70;36.30
12060;DHT22;6091;51.432;6.880;2023-05-07T14:16:07;26.40;36.20
12060;DHT22;6091;51.432;6.880;2023-05-07T14:18:35;26.80;36.30
12060;DHT22;6091;51.432;6.880;2023-05-07T14:21:04;26.60;36.80
12060;DHT22;6091;51.432;6.880;2023-05-07T14:26:05;26.60;36.30
12060;DHT22;6091;51.432;6.880;2023-05-07T14:28:32;26.60;36.30
12060;DHT22;6091;51.432;6.880;2023-05-07T14:31:00;26.70;36.40
12060;DHT22;6091;51.432;6.880;2023-05-07T14:33:28;26.60;36.40
12060;DHT22;6091;51.432;6.880;2023-05-07T14:35:55;26.60;36.40
12060;DHT22;6091;51.432;6.880;2023-05-07T14:38:23;26.60;36.40
12060;DHT22;6091;51.432;6.880;2023-05-07T14:40:50;26.60;36.40
12060;DHT22;6091;51.432;6.880;2023-05-07T14:45:47;26.60;36.40
12060;DHT22;6091;51.432;6.880;2023-05-07T14:48:14;26.60;36.40
12060;DHT22;6091;51.432;6.880;2023-05-07T14:50:47;26.60;36.50
12060;DHT22;6091;51.432;6.880;2023-05-07T14:53:15;26.60;36.50
12060;DHT22;6091;51.432;6.880;2023-05-07T14:58:14;26.60;36.50
12060;DHT22;6091;51.432;6.880;2023-05-07T15:00:42;26.50;37.00
12060;DHT22;6091;51.432;6.880;2023-05-07T15:03:10;26.60;36.50
12060;DHT22;6091;51.432;6.880;2023-05-07T15:05:38;26.50;36.50
12060;DHT22;6091;51.432;6.880;2023-05-07T15:10:38;26.50;36.50
12060;DHT22;6091;51.432;6.880;2023-05-07T15:13:08;26.50;36.50
12060;DHT22;6091;51.432;6.880;2023-05-07T15:15:45;26.50;36.50
12060;DHT22;6091;51.432;6.880;2023-05-07T15:18:13;26.50;36.50
12060;DHT22;6091;51.432;6.880;2023-05-07T15:23:10;26.50;36.50
12060;DHT22;6091;51.432;6.880;2023-05-07T15:25:39;26.50;36.50
12060;DHT22;6091;51.432;6.880;2023-05-07T15:28:07;26.50;36.50
12060;DHT22;6091;51.432;6.880;2023-05-07T15:35:33;26.50;36.60
12060;DHT22;6091;51.432;6.880;2023-05-07T15:40:30;26.60;36.60
12060;DHT22;6091;51.432;6.880;2023-05-07T15:42:57;26.50;36.50
12060;DHT22;6091;51.432;6.880;2023-05-07T15:45:25;26.50;36.60
12060;DHT22;6091;51.432;6.880;2023-05-07T15:47:53;26.50;36.60
12060;DHT22;6091;51.432;6.880;2023-05-07T15:50:20;26.50;36.60
12060;DHT22;6091;51.432;6.880;2023-05-07T15:52:48;26.50;36.60
12060;DHT22;6091;51.432;6.880;2023-05-07T15:55:15;26.50;36.60
12060;DHT22;6091;51.432;6.880;2023-05-07T16:00:11;26.40;36.50
12060;DHT22;6091;51.432;6.880;2023-05-07T16:05:09;26.50;36.60
12060;DHT22;6091;51.432;6.880;2023-05-07T16:07:37;26.60;36.70
12060;DHT22;6091;51.432;6.880;2023-05-07T16:10:05;26.50;36.60
12060;DHT22;6091;51.432;6.880;2023-05-07T16:12:34;26.40;36.60
12060;DHT22;6091;51.432;6.880;2023-05-07T16:17:31;26.50;36.60
12060;DHT22;6091;51.432;6.880;2023-05-07T16:22:28;26.50;36.60
12060;DHT22;6091;51.432;6.880;2023-05-07T16:24:55;26.50;36.70
12060;DHT22;6091;51.432;6.880;2023-05-07T16:27:23;26.50;36.70
12060;DHT22;6091;51.432;6.880;2023-05-07T16:29:50;26.60;36.70
12060;DHT22;6091;51.432;6.880;2023-05-07T16:32:18;26.60;36.70
12060;DHT22;6091;51.432;6.880;2023-05-07T16:34:46;26.50;36.70
12060;DHT22;6091;51.432;6.880;2023-05-07T16:39:41;26.50;36.70
12060;DHT22;6091;51.432;6.880;2023-05-07T16:42:09;26.50;36.70
12060;DHT22;6091;51.432;6.880;2023-05-07T16:47:08;26.50;36.70
12060;DHT22;6091;51.432;6.880;2023-05-07T16:49:35;26.40;36.60
12060;DHT22;6091;51.432;6.880;2023-05-07T16:52:03;26.50;36.70
12060;DHT22;6091;51.432;6.880;2023-05-07T16:54:31;26.50;36.70
12060;DHT22;6091;51.432;6.880;2023-05-07T16:56:59;26.50;36.70
12060;DHT22;6091;51.432;6.880;2023-05-07T16:59:26;26.50;36.70
12060;DHT22;6091;51.432;6.880;2023-05-07T17:01:58;26.40;36.60
12060;DHT22;6091;51.432;6.880;2023-05-07T17:04:26;26.40;36.70
12060;DHT22;6091;51.432;6.880;2023-05-07T17:06:58;26.40;36.70
12060;DHT22;6091;51.432;6.880;2023-05-07T17:09:29;26.40;36.70
12060;DHT22;6091;51.432;6.880;2023-05-07T17:11:59;26.50;37.20
12060;DHT22;6091;51.432;6.880;2023-05-07T17:14:26;26.40;36.70
12060;DHT22;6091;51.432;6.880;2023-05-07T17:16:54;26.40;36.70
12060;DHT22;6091;51.432;6.880;2023-05-07T17:19:24;26.40;36.80
12060;DHT22;6091;51.432;6.880;2023-05-07T17:21:51;26.40;37.30
12060;DHT22;6091;51.432;6.880;2023-05-07T17:24:19;26.40;36.80
12060;DHT22;6091;51.432;6.880;2023-05-07T17:26:49;26.40;36.70
12060;DHT22;6091;51.432;6.880;2023-05-07T17:29:16;26.40;36.70
12060;DHT22;6091;51.432;6.880;2023-05-07T17:31:45;26.40;37.30
12060;DHT22;6091;51.432;6.880;2023-05-07T17:34:13;26.40;36.80